Flight Track Log - Related Links

Times and Time Zones

All times are in EDT time to prevent confusion due to time zone crossing. See the SWA542 flight status page for this flight to view local times or setup timezone preferences in your user account.

Time Position Orientation Groundspeed Altitude Reporting Facility
EDT Latitude Longitude Course Direction KTS MPH feet Rate Location/Type
Thu 11:01:38 PM 41.8317 -87.7656 82° East 194 223 3,300  Level Chicago Center
Thu 11:02:39 PM 41.8394 -87.6903 82° East 264 304 5,100 829 Climbing Chicago Center
Thu 11:03:41 PM 41.8056 -87.6025 117° Southeast 265 305 5,000 98 Descending Chicago Center
Thu 11:04:42 PM 41.7900 -87.5042 102° East 268 308 5,300 1,820 Climbing Chicago Center
Thu 11:05:43 PM 41.7847 -87.3975 94° East 282 325 8,700 3,532 Climbing Chicago Center
Thu 11:06:46 PM 41.7786 -87.2883 94° East 292 336 12,600 3,854 Climbing Chicago Center
Thu 11:07:46 PM 41.7689 -87.1464 95° East 312 359 16,600 3,570 Climbing Chicago Center
Thu 11:08:47 PM 41.7628 -87.0114 93° East 352 405 19,800 2,683 Climbing Chicago Center
Thu 11:09:49 PM 41.7650 -86.8608 89° East 392 451 22,100 1,561 Climbing Chicago Center
Thu 11:10:50 PM 41.7658 -86.7000 90° East 425 489 23,000 443 Climbing Chicago Center
Thu 11:11:51 PM 41.7669 -86.5356 89° East 438 504 23,000  Level Chicago Center
Thu 11:12:53 PM 41.7672 -86.3753 90° East 434 499 23,000  Level Chicago Center
Thu 11:13:54 PM 41.7658 -86.2161 91° East 431 496 23,000 393 Level Chicago Center
Thu 11:14:55 PM 41.7611 -86.0544 92° East 431 496 23,800 1,756 Climbing Chicago Center
Thu 11:15:57 PM 41.7217 -85.9172 111° Southeast 409 471 26,600 2,537 Climbing Chicago Center
Thu 11:16:58 PM 41.6358 -85.8042 135° Southeast 370 426 29,000 1,180 Climbing Chicago Center
Thu 11:17:59 PM 41.5644 -85.7094 135° Southeast 366 421 29,000  Level Chicago Center
Thu 11:19:01 PM 41.4928 -85.6158 136° Southeast 367 422 29,000  Level Chicago Center
Thu 11:20:02 PM 41.4219 -85.5211 135° Southeast 367 422 29,000  Level Chicago Center
Thu 11:21:03 PM 41.3497 -85.4253 135° Southeast 370 426 29,000  Level Chicago Center
Thu 11:22:04 PM 41.2769 -85.3294 135° Southeast 371 427 29,000  Level Chicago Center
Thu 11:23:06 PM 41.2036 -85.2339 136° Southeast 372 428 29,000  Level Chicago Center
Thu 11:24:07 PM 41.1144 -85.1189 136° Southeast 375 432 29,000  Level Chicago Center
Thu 11:25:08 PM 41.0411 -85.0233 135° Southeast 374 430 29,000 -344 Level Chicago Center
Thu 11:26:09 PM 40.9672 -84.9281 136° Southeast 372 428 28,300 -1,561 Descending Chicago Center
Thu 11:27:11 PM 40.8944 -84.8350 136° Southeast 368 423 25,800 -2,098 Descending Chicago Center
Thu 11:28:12 PM 40.8353 -84.7231 125° Southeast 385 443 24,000 -1,377 Descending Chicago Center
Thu 11:29:13 PM 40.7933 -84.5911 113° Southeast 396 456 23,000 -492 Descending Chicago Center
Thu 11:30:14 PM 40.7525 -84.4597 112° Southeast 393 452 23,000  Level Chicago Center
Thu 11:31:15 PM 40.7128 -84.3333 112° Southeast 380 437 23,000  Level Chicago Center
Thu 11:32:17 PM 40.6733 -84.2056 112° Southeast 378 435 23,000 -537 Level Chicago Center
Thu 11:33:18 PM 40.6278 -84.0522 111° Southeast 376 433 21,900 -1,624 Descending Chicago Center
Thu 11:34:30 PM 40.5800 -83.9061 113° Southeast 373 429 19,400 -2,103 Descending Indianapolis Center
Thu 11:34:55 PM 40.5597 -83.8472 114° Southeast 376 433 18,500 -2,262 Descending Indianapolis Center
Thu 11:35:31 PM 40.5400 -83.7781 111° Southeast 374 430 17,100 -2,143 Descending Indianapolis Center
Thu 11:36:33 PM 40.4986 -83.6525 113° Southeast 371 427 15,000 -2,049 Descending Indianapolis Center
Thu 11:37:34 PM 40.4600 -83.5275 112° Southeast 368 423 12,900 -1,869 Descending Indianapolis Center
Thu 11:38:35 PM 40.4153 -83.4131 117° Southeast 352 405 11,200 -1,366 Descending Indianapolis Center
Thu 11:39:37 PM 40.3744 -83.3089 117° Southeast 323 372 10,100 -867 Descending Indianapolis Center
Thu 11:39:58 PM 40.3608 -83.2714 115° Southeast 294 338 10,000 -98 Descending Indianapolis Center
Thu 11:40:38 PM 40.3397 -83.2147 116° Southeast 289 333 10,000  Level Indianapolis Center
Thu 11:40:59 PM 40.3214 -83.1736 120° Southeast 291 335 10,000  Level Indianapolis Center
Thu 11:41:39 PM 40.3033 -83.1194 114° Southeast 288 331 10,000 -300 Level Indianapolis Center
Thu 11:41:59 PM 40.2883 -83.0794 116° Southeast 288 331 9,700 -1,279 Descending Indianapolis Center
Thu 11:42:40 PM 40.2683 -83.0228 115° Southeast 289 333 8,700 -1,473 Descending Indianapolis Center
Thu 11:43:49 PM 40.2192 -82.9242 123° Southeast 269 310 7,000 -1,512 Descending Indianapolis Center
Thu 11:44:43 PM 40.1861 -82.8550 122° Southeast 267 307 5,600 -1,461 Descending Indianapolis Center
Thu 11:45:44 PM 40.1422 -82.7781 127° Southeast 265 305 4,200 -835 Descending Indianapolis Center
Thu 11:46:38 PM 40.1056 -82.7122 126° Southeast 215 247 4,000 -626 Descending Indianapolis Center
Thu 11:47:39 PM 40.0606 -82.6661 142° Southeast 197 227 3,000 -462 Descending Indianapolis Center
Thu 11:48:48 PM 40.0067 -82.6631 178° South 200 230 3,000  Level Indianapolis Center
Thu 11:49:49 PM 39.9861 -82.7208 245° Southwest 181 208 3,000 -393 Level Indianapolis Center
Thu 11:50:50 PM 39.9867 -82.7836 271° West 174 200 2,200 -885 Descending Indianapolis Center
Thu 11:51:51 PM 39.9919 -82.8475 276° West 160 184 1,200 -541 Descending Indianapolis Center
Thu 11:52:52 PM 39.9956 -82.9000 275° West 159 183 1,100 -98 Descending Indianapolis Center

Login

Don't have an account? Register now (free) for customized features, flight alerts, and more!